sensor_id;sensor_type;location;lat;lon;timestamp;pressure;altitude;pressure_sealevel;temperature;humidity
62789;BME280;66401;42.016;21.454;2023-05-29T00:00:38;97938.34;;;16.84;74.68
62789;BME280;66401;42.016;21.454;2023-05-29T00:07:39;97936.66;;;16.78;75.03
62789;BME280;66401;42.016;21.454;2023-05-29T00:10:55;97933.22;;;16.78;74.85
62789;BME280;66401;42.016;21.454;2023-05-29T00:13:51;97927.16;;;16.77;74.96
62789;BME280;66401;42.016;21.454;2023-05-29T00:20:41;97918.88;;;16.69;74.94
62789;BME280;66401;42.016;21.454;2023-05-29T00:23:42;97934.19;;;16.72;75.58
62789;BME280;66401;42.016;21.454;2023-05-29T00:26:25;97934.31;;;16.65;75.18
62789;BME280;66401;42.016;21.454;2023-05-29T00:33:31;97950.22;;;16.58;75.35
62789;BME280;66401;42.016;21.454;2023-05-29T00:40:03;97948.88;;;16.56;76.51
62789;BME280;66401;42.016;21.454;2023-05-29T00:43:41;97948.66;;;16.41;77.22
62789;BME280;66401;42.016;21.454;2023-05-29T00:47:05;97957.66;;;16.16;78.88
62789;BME280;66401;42.016;21.454;2023-05-29T00:50:33;97947.75;;;16.07;78.49
62789;BME280;66401;42.016;21.454;2023-05-29T00:54:14;97944.47;;;16.28;77.28
62789;BME280;66401;42.016;21.454;2023-05-29T00:57:32;97948.25;;;16.20;77.90
62789;BME280;66401;42.016;21.454;2023-05-29T01:00:45;97941.69;;;16.06;78.68
62789;BME280;66401;42.016;21.454;2023-05-29T01:07:21;97941.88;;;16.16;77.51
62789;BME280;66401;42.016;21.454;2023-05-29T01:10:33;97942.22;;;16.20;77.90
62789;BME280;66401;42.016;21.454;2023-05-29T01:14:15;97927.44;;;16.02;77.66
62789;BME280;66401;42.016;21.454;2023-05-29T01:24:58;97951.22;;;15.08;83.51
62789;BME280;66401;42.016;21.454;2023-05-29T01:38:10;97941.28;;;15.10;83.10
62789;BME280;66401;42.016;21.454;2023-05-29T01:40:58;97939.34;;;15.17;81.61
62789;BME280;66401;42.016;21.454;2023-05-29T01:43:25;97933.16;;;15.24;81.45
62789;BME280;66401;42.016;21.454;2023-05-29T01:46:21;97949.13;;;15.34;81.14
62789;BME280;66401;42.016;21.454;2023-05-29T01:49:52;97941.06;;;15.35;80.71
62789;BME280;66401;42.016;21.454;2023-05-29T02:00:37;97946.88;;;15.02;82.33
62789;BME280;66401;42.016;21.454;2023-05-29T02:17:33;97947.88;;;14.36;85.26
62789;BME280;66401;42.016;21.454;2023-05-29T02:24:51;97949.09;;;14.64;84.22
62789;BME280;66401;42.016;21.454;2023-05-29T02:27:57;97949.44;;;14.37;85.25
62789;BME280;66401;42.016;21.454;2023-05-29T02:31:21;97951.88;;;14.39;85.96
62789;BME280;66401;42.016;21.454;2023-05-29T02:34:51;97946.25;;;14.53;84.40
62789;BME280;66401;42.016;21.454;2023-05-29T02:38:11;97944.34;;;14.42;85.37
62789;BME280;66401;42.016;21.454;2023-05-29T02:41:02;97948.16;;;14.46;84.32
62789;BME280;66401;42.016;21.454;2023-05-29T02:47:57;97951.19;;;14.43;83.14
62789;BME280;66401;42.016;21.454;2023-05-29T02:54:51;97960.47;;;14.27;85.41
62789;BME280;66401;42.016;21.454;2023-05-29T02:58:04;97963.22;;;14.02;86.08
62789;BME280;66401;42.016;21.454;2023-05-29T03:01:46;97958.03;;;13.84;87.09
62789;BME280;66401;42.016;21.454;2023-05-29T03:08:37;97959.28;;;13.63;87.34
62789;BME280;66401;42.016;21.454;2023-05-29T03:12:04;97966.09;;;13.64;87.11
62789;BME280;66401;42.016;21.454;2023-05-29T03:18:49;97975.63;;;13.77;87.20
62789;BME280;66401;42.016;21.454;2023-05-29T03:35:56;97999.63;;;13.92;84.65
62789;BME280;66401;42.016;21.454;2023-05-29T03:39:39;97999.97;;;13.96;85.87
62789;BME280;66401;42.016;21.454;2023-05-29T03:49:27;98000.78;;;14.26;85.58
62789;BME280;66401;42.016;21.454;2023-05-29T03:52:22;97993.88;;;14.32;85.08
62789;BME280;66401;42.016;21.454;2023-05-29T03:55:13;97998.78;;;14.58;83.90
62789;BME280;66401;42.016;21.454;2023-05-29T03:58:35;98002.91;;;14.66;84.62
62789;BME280;66401;42.016;21.454;2023-05-29T04:02:19;98013.06;;;14.74;84.46
62789;BME280;66401;42.016;21.454;2023-05-29T04:08:51;98005.22;;;14.86;83.14
62789;BME280;66401;42.016;21.454;2023-05-29T04:12:20;98019.47;;;14.78;82.92
62789;BME280;66401;42.016;21.454;2023-05-29T04:15:59;98021.88;;;14.80;82.72
62789;BME280;66401;42.016;21.454;2023-05-29T04:19:40;98024.53;;;15.03;82.28
62789;BME280;66401;42.016;21.454;2023-05-29T04:26:26;98027.59;;;15.00;80.92
62789;BME280;66401;42.016;21.454;2023-05-29T04:29:53;98027.63;;;15.24;79.99
62789;BME280;66401;42.016;21.454;2023-05-29T04:33:35;98025.69;;;15.42;79.28
62789;BME280;66401;42.016;21.454;2023-05-29T04:37:13;98033.56;;;15.31;79.56
62789;BME280;66401;42.016;21.454;2023-05-29T04:40:31;98023.88;;;15.43;80.34
62789;BME280;66401;42.016;21.454;2023-05-29T04:43:35;98037.34;;;15.58;80.57
62789;BME280;66401;42.016;21.454;2023-05-29T04:50:40;98044.34;;;15.64;81.25
62789;BME280;66401;42.016;21.454;2023-05-29T05:09:12;98046.03;;;15.70;80.66
62789;BME280;66401;42.016;21.454;2023-05-29T05:15:36;98063.50;;;15.77;80.28
62789;BME280;66401;42.016;21.454;2023-05-29T05:25:57;98076.59;;;16.52;77.61
62789;BME280;66401;42.016;21.454;2023-05-29T05:40:08;98076.63;;;16.97;74.99
62789;BME280;66401;42.016;21.454;2023-05-29T05:43:15;98071.50;;;17.19;74.08
62789;BME280;66401;42.016;21.454;2023-05-29T05:47:14;98067.78;;;17.54;73.90
62789;BME280;66401;42.016;21.454;2023-05-29T05:53:26;98068.09;;;17.91;72.69
62789;BME280;66401;42.016;21.454;2023-05-29T05:57:19;98065.56;;;17.79;72.98
62789;BME280;66401;42.016;21.454;2023-05-29T06:04:05;98065.44;;;17.91;72.52
62789;BME280;66401;42.016;21.454;2023-05-29T06:07:09;98070.31;;;18.21;72.64
62789;BME280;66401;42.016;21.454;2023-05-29T06:09:56;98069.47;;;18.37;72.99
62789;BME280;66401;42.016;21.454;2023-05-29T06:16:46;98073.91;;;18.58;70.03
62789;BME280;66401;42.016;21.454;2023-05-29T06:24:06;98070.59;;;18.95;69.61
62789;BME280;66401;42.016;21.454;2023-05-29T06:27:25;98068.59;;;19.07;69.19
62789;BME280;66401;42.016;21.454;2023-05-29T06:30:31;98063.47;;;19.23;69.33
62789;BME280;66401;42.016;21.454;2023-05-29T06:33:44;98070.31;;;19.24;67.59
62789;BME280;66401;42.016;21.454;2023-05-29T06:37:12;98070.25;;;19.13;68.77
62789;BME280;66401;42.016;21.454;2023-05-29T06:48:02;98071.25;;;19.07;66.62
62789;BME280;66401;42.016;21.454;2023-05-29T06:51:36;98066.75;;;18.81;68.04
62789;BME280;66401;42.016;21.454;2023-05-29T06:55:28;98062.00;;;19.42;67.53
62789;BME280;66401;42.016;21.454;2023-05-29T07:01:58;98071.31;;;19.50;64.11
62789;BME280;66401;42.016;21.454;2023-05-29T07:04:24;98069.47;;;19.50;64.42
62789;BME280;66401;42.016;21.454;2023-05-29T07:06:50;98062.78;;;19.75;63.71
62789;BME280;66401;42.016;21.454;2023-05-29T07:09:16;98066.56;;;19.94;63.11
62789;BME280;66401;42.016;21.454;2023-05-29T07:11:42;98048.13;;;19.99;61.49
62789;BME280;66401;42.016;21.454;2023-05-29T07:14:07;98056.03;;;19.99;62.14
62789;BME280;66401;42.016;21.454;2023-05-29T07:16:32;98052.09;;;20.07;62.32
62789;BME280;66401;42.016;21.454;2023-05-29T07:18:58;98039.69;;;20.12;62.77
62789;BME280;66401;42.016;21.454;2023-05-29T07:21:24;98058.69;;;19.99;61.10
62789;BME280;66401;42.016;21.454;2023-05-29T07:23:49;98056.53;;;19.91;62.87
62789;BME280;66401;42.016;21.454;2023-05-29T07:26:15;98054.53;;;20.18;62.08
62789;BME280;66401;42.016;21.454;2023-05-29T07:28:41;98056.66;;;20.21;60.76
62789;BME280;66401;42.016;21.454;2023-05-29T07:31:06;98055.53;;;20.02;59.13
62789;BME280;66401;42.016;21.454;2023-05-29T07:33:32;98048.69;;;20.16;59.69
62789;BME280;66401;42.016;21.454;2023-05-29T07:35:57;98049.41;;;20.59;61.36
62789;BME280;66401;42.016;21.454;2023-05-29T07:38:23;98036.19;;;20.74;59.13
62789;BME280;66401;42.016;21.454;2023-05-29T07:40:48;98034.59;;;20.83;58.70
62789;BME280;66401;42.016;21.454;2023-05-29T07:43:14;98038.31;;;20.82;60.02
62789;BME280;66401;42.016;21.454;2023-05-29T07:45:39;98053.34;;;20.51;59.60
62789;BME280;66401;42.016;21.454;2023-05-29T07:48:05;98049.41;;;20.64;59.50
62789;BME280;66401;42.016;21.454;2023-05-29T07:50:30;98045.19;;;20.83;59.09
62789;BME280;66401;42.016;21.454;2023-05-29T07:53:20;98049.41;;;20.69;59.05
62789;BME280;66401;42.016;21.454;2023-05-29T07:55:52;98049.44;;;21.10;60.37
62789;BME280;66401;42.016;21.454;2023-05-29T07:58:18;98044.72;;;21.27;58.08
62789;BME280;66401;42.016;21.454;2023-05-29T08:00:44;98046.28;;;21.49;58.59
62789;BME280;66401;42.016;21.454;2023-05-29T08:03:10;98039.13;;;20.98;57.17
62789;BME280;66401;42.016;21.454;2023-05-29T08:05:36;98042.31;;;21.36;58.40
62789;BME280;66401;42.016;21.454;2023-05-29T08:08:02;98036.75;;;21.48;57.17
62789;BME280;66401;42.016;21.454;2023-05-29T08:10:27;98033.03;;;21.03;58.42
62789;BME280;66401;42.016;21.454;2023-05-29T08:12:53;98035.66;;;21.13;57.68
62789;BME280;66401;42.016;21.454;2023-05-29T08:15:19;98033.84;;;21.34;58.40
62789;BME280;66401;42.016;21.454;2023-05-29T08:17:44;98033.84;;;21.24;56.88
62789;BME280;66401;42.016;21.454;2023-05-29T08:20:10;98028.25;;;21.40;56.42
62789;BME280;66401;42.016;21.454;2023-05-29T08:22:36;98036.22;;;20.95;57.07
62789;BME280;66401;42.016;21.454;2023-05-29T08:25:01;98023.50;;;21.07;58.88
62789;BME280;66401;42.016;21.454;2023-05-29T08:27:27;98027.22;;;21.16;57.20
62789;BME280;66401;42.016;21.454;2023-05-29T08:29:52;98017.91;;;20.73;58.71
62789;BME280;66401;42.016;21.454;2023-05-29T08:32:20;98021.91;;;21.16;58.33
62789;BME280;66401;42.016;21.454;2023-05-29T08:34:46;98024.56;;;21.41;56.52
62789;BME280;66401;42.016;21.454;2023-05-29T08:37:12;98020.53;;;21.75;56.44
62789;BME280;66401;42.016;21.454;2023-05-29T08:39:37;98030.69;;;22.27;57.94
62789;BME280;66401;42.016;21.454;2023-05-29T08:42:07;98018.78;;;22.69;54.01
62789;BME280;66401;42.016;21.454;2023-05-29T08:44:35;98010.69;;;22.89;53.94
62789;BME280;66401;42.016;21.454;2023-05-29T08:47:06;98015.88;;;23.04;51.66
62789;BME280;66401;42.016;21.454;2023-05-29T08:49:43;98016.00;;;22.89;50.51
62789;BME280;66401;42.016;21.454;2023-05-29T08:52:15;98021.44;;;22.69;51.94
62789;BME280;66401;42.016;21.454;2023-05-29T08:54:41;98013.41;;;22.74;50.83
62789;BME280;66401;42.016;21.454;2023-05-29T08:57:07;98013.22;;;23.04;51.51
62789;BME280;66401;42.016;21.454;2023-05-29T08:59:33;98009.53;;;23.58;50.69
62789;BME280;66401;42.016;21.454;2023-05-29T09:02:00;98006.88;;;23.82;49.22
62789;BME280;66401;42.016;21.454;2023-05-29T09:06:53;98020.00;;;23.74;49.23
62789;BME280;66401;42.016;21.454;2023-05-29T09:09:20;98011.88;;;23.89;49.30
62789;BME280;66401;42.016;21.454;2023-05-29T09:11:46;98012.97;;;22.62;50.25
62789;BME280;66401;42.016;21.454;2023-05-29T09:14:38;98009.81;;;22.05;51.43
62789;BME280;66401;42.016;21.454;2023-05-29T09:17:05;98009.09;;;22.44;51.96
62789;BME280;66401;42.016;21.454;2023-05-29T09:19:31;97996.38;;;22.80;49.75
62789;BME280;66401;42.016;21.454;2023-05-29T09:22:13;98000.72;;;22.66;49.80
62789;BME280;66401;42.016;21.454;2023-05-29T09:24:40;98003.06;;;22.33;50.79
62789;BME280;66401;42.016;21.454;2023-05-29T09:27:09;97990.97;;;22.12;51.78
62789;BME280;66401;42.016;21.454;2023-05-29T09:29:41;97988.03;;;22.57;51.73
62789;BME280;66401;42.016;21.454;2023-05-29T09:34:34;97974.16;;;22.71;51.28
62789;BME280;66401;42.016;21.454;2023-05-29T09:37:01;97978.25;;;22.92;51.26
62789;BME280;66401;42.016;21.454;2023-05-29T09:39:33;97979.19;;;22.28;51.85
62789;BME280;66401;42.016;21.454;2023-05-29T09:41:59;97974.88;;;22.76;51.56
62789;BME280;66401;42.016;21.454;2023-05-29T09:44:26;97980.91;;;23.21;51.89
62789;BME280;66401;42.016;21.454;2023-05-29T09:46:58;97973.59;;;23.37;51.58
62789;BME280;66401;42.016;21.454;2023-05-29T09:49:25;97965.91;;;23.64;52.35
62789;BME280;66401;42.016;21.454;2023-05-29T09:51:54;97969.66;;;23.82;50.66
62789;BME280;66401;42.016;21.454;2023-05-29T09:54:19;97972.66;;;24.18;50.47
62789;BME280;66401;42.016;21.454;2023-05-29T09:56:45;97968.88;;;24.62;48.85
62789;BME280;66401;42.016;21.454;2023-05-29T09:59:12;97962.25;;;24.92;48.30
62789;BME280;66401;42.016;21.454;2023-05-29T10:01:41;97967.16;;;25.04;48.43
62789;BME280;66401;42.016;21.454;2023-05-29T10:04:10;97963.34;;;25.24;47.27
62789;BME280;66401;42.016;21.454;2023-05-29T10:06:43;97956.53;;;25.31;46.10
62789;BME280;66401;42.016;21.454;2023-05-29T10:09:12;97949.63;;;25.30;46.90
62789;BME280;66401;42.016;21.454;2023-05-29T10:11:41;97949.44;;;25.40;45.19
62789;BME280;66401;42.016;21.454;2023-05-29T10:14:09;97950.38;;;25.17;46.35
62789;BME280;66401;42.016;21.454;2023-05-29T10:16:40;97930.16;;;24.83;45.22
62789;BME280;66401;42.016;21.454;2023-05-29T10:19:11;97938.28;;;24.92;45.31
62789;BME280;66401;42.016;21.454;2023-05-29T10:21:39;97923.94;;;24.88;46.27
62789;BME280;66401;42.016;21.454;2023-05-29T10:24:06;97931.72;;;25.17;47.28
62789;BME280;66401;42.016;21.454;2023-05-29T10:26:36;97917.50;;;24.75;45.85
62789;BME280;66401;42.016;21.454;2023-05-29T10:32:27;97925.56;;;24.38;46.57
62789;BME280;66401;42.016;21.454;2023-05-29T10:35:08;97924.00;;;24.37;48.14
62789;BME280;66401;42.016;21.454;2023-05-29T10:37:47;97929.38;;;23.70;47.16
62789;BME280;66401;42.016;21.454;2023-05-29T10:40:14;97921.88;;;23.77;48.34
62789;BME280;66401;42.016;21.454;2023-05-29T10:42:47;97924.00;;;24.37;49.54
62789;BME280;66401;42.016;21.454;2023-05-29T10:50:42;97926.53;;;25.81;46.29
62789;BME280;66401;42.016;21.454;2023-05-29T10:53:09;97916.25;;;25.33;44.83
62789;BME280;66401;42.016;21.454;2023-05-29T10:55:36;97917.84;;;25.20;44.62
62789;BME280;66401;42.016;21.454;2023-05-29T10:58:08;97907.53;;;25.27;47.27
62789;BME280;66401;42.016;21.454;2023-05-29T11:00:34;97906.09;;;25.49;45.46
62789;BME280;66401;42.016;21.454;2023-05-29T11:03:07;97900.56;;;24.71;44.89
62789;BME280;66401;42.016;21.454;2023-05-29T11:05:33;97893.13;;;25.15;46.22
62789;BME280;66401;42.016;21.454;2023-05-29T11:08:00;97886.75;;;25.29;45.31
62789;BME280;66401;42.016;21.454;2023-05-29T11:18:51;97880.78;;;25.74;45.04
62789;BME280;66401;42.016;21.454;2023-05-29T11:24:02;97871.81;;;26.06;44.58
62789;BME280;66401;42.016;21.454;2023-05-29T11:26:29;97873.69;;;26.05;43.76
62789;BME280;66401;42.016;21.454;2023-05-29T11:29:04;97875.06;;;26.03;45.06
62789;BME280;66401;42.016;21.454;2023-05-29T11:31:37;97871.31;;;26.04;42.83
62789;BME280;66401;42.016;21.454;2023-05-29T11:34:04;97860.53;;;25.45;43.31
62789;BME280;66401;42.016;21.454;2023-05-29T11:36:34;97871.16;;;24.76;44.52
62789;BME280;66401;42.016;21.454;2023-05-29T11:39:03;97858.59;;;25.23;45.83
62789;BME280;66401;42.016;21.454;2023-05-29T11:41:29;97855.59;;;24.97;44.69
62789;BME280;66401;42.016;21.454;2023-05-29T11:44:02;97848.66;;;24.69;44.46
62789;BME280;66401;42.016;21.454;2023-05-29T11:46:28;97844.13;;;24.37;43.17
62789;BME280;66401;42.016;21.454;2023-05-29T11:48:58;97844.88;;;24.56;45.16
62789;BME280;66401;42.016;21.454;2023-05-29T11:51:23;97845.00;;;24.65;43.96
62789;BME280;66401;42.016;21.454;2023-05-29T11:53:49;97841.19;;;24.98;44.68
62789;BME280;66401;42.016;21.454;2023-05-29T11:56:18;97841.22;;;25.12;47.12
62789;BME280;66401;42.016;21.454;2023-05-29T11:58:44;97827.78;;;25.31;43.92
62789;BME280;66401;42.016;21.454;2023-05-29T12:01:10;97841.22;;;25.26;45.48
62789;BME280;66401;42.016;21.454;2023-05-29T12:03:42;97840.44;;;25.39;45.10
62789;BME280;66401;42.016;21.454;2023-05-29T12:06:09;97830.13;;;25.60;44.77
62789;BME280;66401;42.016;21.454;2023-05-29T12:08:36;97833.69;;;25.42;43.62
62789;BME280;66401;42.016;21.454;2023-05-29T12:11:02;97839.44;;;25.49;42.52
62789;BME280;66401;42.016;21.454;2023-05-29T12:13:27;97833.50;;;25.38;42.94
62789;BME280;66401;42.016;21.454;2023-05-29T12:15:56;97831.81;;;25.28;43.75
62789;BME280;66401;42.016;21.454;2023-05-29T12:18:23;97834.50;;;25.01;44.50
62789;BME280;66401;42.016;21.454;2023-05-29T12:20:49;97829.16;;;25.28;45.19
62789;BME280;66401;42.016;21.454;2023-05-29T12:23:17;97820.88;;;25.16;43.57
62789;BME280;66401;42.016;21.454;2023-05-29T12:25:46;97816.91;;;25.27;44.95
62789;BME280;66401;42.016;21.454;2023-05-29T12:28:16;97820.63;;;25.54;45.41
62789;BME280;66401;42.016;21.454;2023-05-29T12:30:44;97819.09;;;25.25;41.98
62789;BME280;66401;42.016;21.454;2023-05-29T12:33:32;97820.84;;;24.89;43.21
62789;BME280;66401;42.016;21.454;2023-05-29T12:36:05;97814.09;;;24.50;43.08
62789;BME280;66401;42.016;21.454;2023-05-29T12:38:32;97810.69;;;24.63;43.72
62789;BME280;66401;42.016;21.454;2023-05-29T12:40:57;97809.97;;;24.44;43.71
62789;BME280;66401;42.016;21.454;2023-05-29T12:43:23;97808.44;;;24.38;45.34
62789;BME280;66401;42.016;21.454;2023-05-29T12:45:54;97804.47;;;24.03;45.88
62789;BME280;66401;42.016;21.454;2023-05-29T12:48:26;97806.09;;;24.17;43.52
62789;BME280;66401;42.016;21.454;2023-05-29T12:50:51;97806.25;;;24.72;45.27
62789;BME280;66401;42.016;21.454;2023-05-29T12:53:17;97794.84;;;25.13;44.19
62789;BME280;66401;42.016;21.454;2023-05-29T12:55:43;97786.31;;;25.38;43.24
62789;BME280;66401;42.016;21.454;2023-05-29T12:58:12;97786.66;;;25.59;41.95
62789;BME280;66401;42.016;21.454;2023-05-29T13:00:39;97787.31;;;25.65;42.06
62789;BME280;66401;42.016;21.454;2023-05-29T13:03:05;97790.34;;;25.50;41.79
62789;BME280;66401;42.016;21.454;2023-05-29T13:05:31;97792.22;;;25.35;42.49
62789;BME280;66401;42.016;21.454;2023-05-29T13:07:57;97796.78;;;25.35;43.04
62789;BME280;66401;42.016;21.454;2023-05-29T13:10:24;97800.53;;;25.34;41.77
62789;BME280;66401;42.016;21.454;2023-05-29T13:12:50;97794.94;;;25.08;44.99
62789;BME280;66401;42.016;21.454;2023-05-29T13:15:25;97788.03;;;25.07;44.96
62789;BME280;66401;42.016;21.454;2023-05-29T13:17:52;97781.22;;;25.01;45.36
62789;BME280;66401;42.016;21.454;2023-05-29T13:20:18;97788.31;;;24.92;45.77
62789;BME280;66401;42.016;21.454;2023-05-29T13:22:45;97787.31;;;24.88;46.17
62789;BME280;66401;42.016;21.454;2023-05-29T13:25:13;97788.19;;;24.97;45.04
62789;BME280;66401;42.016;21.454;2023-05-29T13:27:40;97793.94;;;24.90;46.50
62789;BME280;66401;42.016;21.454;2023-05-29T13:30:07;97785.53;;;24.69;46.75
62789;BME280;66401;42.016;21.454;2023-05-29T13:32:33;97791.81;;;24.60;46.81
62789;BME280;66401;42.016;21.454;2023-05-29T13:35:00;97786.50;;;24.60;47.79
62789;BME280;66401;42.016;21.454;2023-05-29T13:37:26;97790.47;;;24.62;46.58
62789;BME280;66401;42.016;21.454;2023-05-29T13:39:53;97785.50;;;24.55;45.36
62789;BME280;66401;42.016;21.454;2023-05-29T13:42:19;97782.91;;;24.37;46.12
62789;BME280;66401;42.016;21.454;2023-05-29T13:44:46;97776.44;;;24.43;47.58
62789;BME280;66401;42.016;21.454;2023-05-29T13:47:11;97781.84;;;24.38;46.68
62789;BME280;66401;42.016;21.454;2023-05-29T13:49:37;97784.03;;;24.31;46.14
62789;BME280;66401;42.016;21.454;2023-05-29T13:52:03;97779.63;;;24.26;46.77
62789;BME280;66401;42.016;21.454;2023-05-29T13:54:29;97781.16;;;24.32;46.89
62789;BME280;66401;42.016;21.454;2023-05-29T13:56:57;97767.28;;;24.16;48.97
62789;BME280;66401;42.016;21.454;2023-05-29T13:59:26;97781.50;;;24.25;48.37
62789;BME280;66401;42.016;21.454;2023-05-29T14:01:52;97792.78;;;24.50;47.99
62789;BME280;66401;42.016;21.454;2023-05-29T14:04:18;97795.97;;;24.52;48.40
62789;BME280;66401;42.016;21.454;2023-05-29T14:06:43;97800.53;;;24.65;47.24
62789;BME280;66401;42.016;21.454;2023-05-29T14:09:09;97793.81;;;24.68;46.55
62789;BME280;66401;42.016;21.454;2023-05-29T14:11:39;97799.44;;;24.66;44.94
62789;BME280;66401;42.016;21.454;2023-05-29T14:14:05;97788.78;;;24.52;45.33
62789;BME280;66401;42.016;21.454;2023-05-29T14:16:31;97794.53;;;24.41;47.56
62789;BME280;66401;42.016;21.454;2023-05-29T14:18:58;97800.00;;;24.49;47.60
62789;BME280;66401;42.016;21.454;2023-05-29T14:21:23;97790.66;;;24.52;45.77
62789;BME280;66401;42.016;21.454;2023-05-29T14:23:49;97799.47;;;24.34;45.79
62789;BME280;66401;42.016;21.454;2023-05-29T14:26:14;97788.88;;;24.61;45.92
62789;BME280;66401;42.016;21.454;2023-05-29T14:28:40;97782.97;;;24.64;47.23
62789;BME280;66401;42.016;21.454;2023-05-29T14:31:06;97789.47;;;24.58;48.23
62789;BME280;66401;42.016;21.454;2023-05-29T14:33:32;97792.59;;;24.60;50.63
62789;BME280;66401;42.016;21.454;2023-05-29T14:35:57;97782.75;;;24.47;54.64
62789;BME280;66401;42.016;21.454;2023-05-29T14:38:23;97790.97;;;24.32;53.85
62789;BME280;66401;42.016;21.454;2023-05-29T14:40:49;97778.09;;;24.06;48.35
62789;BME280;66401;42.016;21.454;2023-05-29T14:43:14;97783.75;;;23.99;49.30
62789;BME280;66401;42.016;21.454;2023-05-29T14:45:40;97767.44;;;24.06;48.54
62789;BME280;66401;42.016;21.454;2023-05-29T14:48:06;97788.97;;;24.23;46.40
62789;BME280;66401;42.016;21.454;2023-05-29T14:50:33;97793.28;;;24.19;46.35
62789;BME280;66401;42.016;21.454;2023-05-29T14:52:59;97796.88;;;23.96;44.43
62789;BME280;66401;42.016;21.454;2023-05-29T14:55:24;97795.03;;;24.10;46.98
62789;BME280;66401;42.016;21.454;2023-05-29T14:57:50;97795.78;;;23.97;45.09
62789;BME280;66401;42.016;21.454;2023-05-29T15:00:16;97802.94;;;24.15;45.51
62789;BME280;66401;42.016;21.454;2023-05-29T15:02:41;97785.13;;;23.97;44.21
62789;BME280;66401;42.016;21.454;2023-05-29T15:05:07;97776.66;;;23.95;45.16
62789;BME280;66401;42.016;21.454;2023-05-29T15:07:33;97796.31;;;24.32;42.99
62789;BME280;66401;42.016;21.454;2023-05-29T15:10:03;97788.63;;;24.11;43.12
62789;BME280;66401;42.016;21.454;2023-05-29T15:12:29;97783.75;;;23.99;44.30
62789;BME280;66401;42.016;21.454;2023-05-29T15:14:54;97778.81;;;23.93;44.00
62789;BME280;66401;42.016;21.454;2023-05-29T15:17:20;97794.84;;;24.07;45.36
62789;BME280;66401;42.016;21.454;2023-05-29T15:19:46;97787.31;;;23.95;44.35
62789;BME280;66401;42.016;21.454;2023-05-29T15:22:11;97789.66;;;23.96;44.13
62789;BME280;66401;42.016;21.454;2023-05-29T15:24:37;97788.91;;;24.10;45.07
62789;BME280;66401;42.016;21.454;2023-05-29T15:27:02;97795.28;;;23.95;46.13
62789;BME280;66401;42.016;21.454;2023-05-29T15:29:33;97785.94;;;23.97;45.83
62789;BME280;66401;42.016;21.454;2023-05-29T15:32:00;97785.56;;;24.04;45.27
62789;BME280;66401;42.016;21.454;2023-05-29T15:34:26;97789.81;;;24.05;43.78
62789;BME280;66401;42.016;21.454;2023-05-29T15:36:51;97779.66;;;24.07;45.77
62789;BME280;66401;42.016;21.454;2023-05-29T15:39:17;97782.66;;;23.68;46.43
62789;BME280;66401;42.016;21.454;2023-05-29T15:41:43;97797.22;;;23.70;46.36
62789;BME280;66401;42.016;21.454;2023-05-29T15:44:08;97786.00;;;23.74;47.38
62789;BME280;66401;42.016;21.454;2023-05-29T15:46:33;97784.16;;;23.55;47.73
62789;BME280;66401;42.016;21.454;2023-05-29T15:48:59;97781.34;;;23.47;48.90
62789;BME280;66401;42.016;21.454;2023-05-29T15:51:25;97792.09;;;23.36;47.25
62789;BME280;66401;42.016;21.454;2023-05-29T15:53:50;97796.72;;;23.26;48.49
62789;BME280;66401;42.016;21.454;2023-05-29T15:56:16;97798.81;;;23.10;48.90
62789;BME280;66401;42.016;21.454;2023-05-29T15:58:41;97800.84;;;22.94;48.47
62789;BME280;66401;42.016;21.454;2023-05-29T16:01:07;97801.41;;;22.91;48.62
62789;BME280;66401;42.016;21.454;2023-05-29T16:03:32;97803.84;;;22.82;49.72
62789;BME280;66401;42.016;21.454;2023-05-29T16:05:58;97811.56;;;22.84;50.17
62789;BME280;66401;42.016;21.454;2023-05-29T16:08:26;97810.94;;;22.92;50.64
62789;BME280;66401;42.016;21.454;2023-05-29T16:10:52;97825.34;;;22.86;49.92
62789;BME280;66401;42.016;21.454;2023-05-29T16:13:17;97830.72;;;22.76;49.49
62789;BME280;66401;42.016;21.454;2023-05-29T16:15:44;97832.41;;;22.67;50.54
62789;BME280;66401;42.016;21.454;2023-05-29T16:18:11;97841.34;;;22.76;48.99
62789;BME280;66401;42.016;21.454;2023-05-29T16:20:37;97828.63;;;22.78;49.88
62789;BME280;66401;42.016;21.454;2023-05-29T16:23:03;97843.56;;;22.98;50.40
62789;BME280;66401;42.016;21.454;2023-05-29T16:25:29;97837.09;;;23.04;51.94
62789;BME280;66401;42.016;21.454;2023-05-29T16:27:55;97839.84;;;22.99;51.75
62789;BME280;66401;42.016;21.454;2023-05-29T16:30:21;97838.81;;;22.95;52.30
62789;BME280;66401;42.016;21.454;2023-05-29T16:32:48;97841.75;;;22.93;53.82
62789;BME280;66401;42.016;21.454;2023-05-29T16:35:14;97837.00;;;22.90;53.33
62789;BME280;66401;42.016;21.454;2023-05-29T16:37:39;97835.44;;;22.89;53.40
62789;BME280;66401;42.016;21.454;2023-05-29T16:40:05;97833.34;;;22.81;54.33
62789;BME280;66401;42.016;21.454;2023-05-29T16:42:31;97829.13;;;22.80;54.29
62789;BME280;66401;42.016;21.454;2023-05-29T16:44:56;97835.59;;;22.69;54.84
62789;BME280;66401;42.016;21.454;2023-05-29T16:47:22;97838.38;;;22.53;55.62
62789;BME280;66401;42.016;21.454;2023-05-29T16:49:47;97837.81;;;22.56;54.67
62789;BME280;66401;42.016;21.454;2023-05-29T16:52:14;97842.91;;;22.53;55.34
62789;BME280;66401;42.016;21.454;2023-05-29T16:54:47;97845.78;;;22.56;55.25
62789;BME280;66401;42.016;21.454;2023-05-29T16:57:13;97851.16;;;22.51;54.66
62789;BME280;66401;42.016;21.454;2023-05-29T16:59:39;97852.16;;;22.55;54.46
62789;BME280;66401;42.016;21.454;2023-05-29T17:02:05;97846.84;;;22.55;54.80
62789;BME280;66401;42.016;21.454;2023-05-29T17:04:32;97847.66;;;22.56;55.00
62789;BME280;66401;42.016;21.454;2023-05-29T17:06:59;97846.06;;;22.55;55.61